createdAt,value
2017-11-26T00:01:38.635Z,11.47
2017-11-26T00:04:06.054Z,13.60
2017-11-26T00:06:33.491Z,13.40
2017-11-26T00:09:00.927Z,13.13
2017-11-26T00:11:28.352Z,14.47
2017-11-26T00:13:56.571Z,13.50
2017-11-26T00:16:24.028Z,12.93
2017-11-26T00:18:51.451Z,14.27
2017-11-26T00:21:18.886Z,17.33
2017-11-26T00:23:47.090Z,14.80
2017-11-26T00:26:14.571Z,12.23
2017-11-26T00:28:42.009Z,18.97
2017-11-26T00:31:09.484Z,13.40
2017-11-26T00:33:36.915Z,13.97
2017-11-26T00:36:04.349Z,10.63
2017-11-26T00:38:32.613Z,12.13
2017-11-26T00:41:00.038Z,14.20
2017-11-26T00:43:27.480Z,20.10
2017-11-26T00:45:54.938Z,12.97
2017-11-26T00:48:22.345Z,13.10
2017-11-26T00:50:50.569Z,11.67
2017-11-26T00:53:17.977Z,16.73
2017-11-26T00:55:45.489Z,13.33
2017-11-26T00:58:12.939Z,11.80
2017-11-26T01:00:40.401Z,13.70
2017-11-26T01:03:07.854Z,16.23
2017-11-26T01:05:35.309Z,22.53
2017-11-26T01:08:02.731Z,14.97
2017-11-26T01:10:30.954Z,10.17
2017-11-26T01:12:58.401Z,17.60
2017-11-26T01:15:25.818Z,13.47
2017-11-26T01:17:54.032Z,11.10
2017-11-26T01:20:21.453Z,11.57
2017-11-26T01:22:49.659Z,11.20
2017-11-26T01:25:17.083Z,11.20
2017-11-26T01:27:45.290Z,11.30
2017-11-26T01:30:12.706Z,13.27
2017-11-26T01:32:40.893Z,11.40
2017-11-26T01:35:08.338Z,14.13
2017-11-26T01:37:36.575Z,11.30
2017-11-26T01:40:03.982Z,15.03
2017-11-26T01:42:32.182Z,13.60
2017-11-26T01:44:59.646Z,17.40
2017-11-26T01:47:27.069Z,16.73
2017-11-26T01:49:55.294Z,15.20
2017-11-26T01:52:22.714Z,18.97
2017-11-26T01:54:50.141Z,18.57
2017-11-26T01:57:17.679Z,14.83
2017-11-26T01:59:45.102Z,13.07
2017-11-26T02:02:12.557Z,14.87
2017-11-26T02:04:40.025Z,14.80
2017-11-26T02:07:07.491Z,18.23
2017-11-26T02:09:34.916Z,22.27
2017-11-26T02:12:02.394Z,14.30
2017-11-26T02:14:29.822Z,14.20
2017-11-26T02:16:57.251Z,14.27
2017-11-26T02:19:25.447Z,11.30
2017-11-26T02:21:53.648Z,16.00
2017-11-26T02:24:21.110Z,15.13
2017-11-26T02:26:48.566Z,14.43
2017-11-26T02:29:16.002Z,15.27
2017-11-26T02:31:55.565Z,16.23
2017-11-26T02:34:30.490Z,11.87
2017-11-26T02:36:57.972Z,15.20
2017-11-26T02:39:25.399Z,13.83
2017-11-26T02:41:52.904Z,14.83
2017-11-26T02:44:20.330Z,13.20
2017-11-26T02:46:47.772Z,13.77
2017-11-26T02:49:15.194Z,17.57
2017-11-26T02:51:43.448Z,9.53
2017-11-26T02:54:10.858Z,17.33
2017-11-26T02:56:38.280Z,15.23
2017-11-26T02:59:05.786Z,11.43
2017-11-26T03:01:33.209Z,16.67
2017-11-26T03:04:01.412Z,8.90
2017-11-26T03:06:28.851Z,15.27
2017-11-26T03:08:56.329Z,15.17
2017-11-26T03:11:23.785Z,11.00
2017-11-26T03:13:51.206Z,12.77
2017-11-26T03:16:19.400Z,16.13
2017-11-26T03:18:46.886Z,14.43
2017-11-26T03:21:14.334Z,14.40
2017-11-26T03:23:41.779Z,13.13
2017-11-26T03:26:09.195Z,24.70
2017-11-26T03:28:36.634Z,14.40
2017-11-26T03:31:04.080Z,13.33
2017-11-26T03:33:31.499Z,14.90
2017-11-26T03:35:58.974Z,15.90
2017-11-26T03:38:26.430Z,15.93
2017-11-26T03:40:53.854Z,18.17
2017-11-26T03:43:22.065Z,18.60
2017-11-26T03:45:49.485Z,12.27
2017-11-26T03:48:17.713Z,17.10
2017-11-26T03:50:45.261Z,23.07
2017-11-26T03:53:12.686Z,15.00
2017-11-26T03:55:40.110Z,18.70
2017-11-26T03:58:07.629Z,12.57
2017-11-26T04:00:35.055Z,14.27
2017-11-26T04:03:02.546Z,18.73
2017-11-26T04:05:29.991Z,15.13
2017-11-26T04:07:57.462Z,14.47
2017-11-26T04:10:24.918Z,19.47
2017-11-26T04:12:52.387Z,19.90
2017-11-26T04:15:19.828Z,19.10
2017-11-26T04:17:47.282Z,22.00
2017-11-26T04:20:14.738Z,11.63
2017-11-26T04:22:42.169Z,11.67
2017-11-26T04:25:09.652Z,14.70
2017-11-26T04:27:37.083Z,16.17
2017-11-26T04:30:04.509Z,17.33
2017-11-26T04:32:31.940Z,15.43
2017-11-26T04:34:59.378Z,15.67
2017-11-26T04:37:26.841Z,15.77
2017-11-26T04:39:54.295Z,18.13
2017-11-26T04:42:21.721Z,23.67
2017-11-26T04:44:49.219Z,31.33
2017-11-26T04:47:16.679Z,22.73
2017-11-26T04:49:44.116Z,21.63
2017-11-26T04:52:12.505Z,22.53
2017-11-26T04:54:39.933Z,22.73
2017-11-26T04:57:07.433Z,17.27
2017-11-26T04:59:34.857Z,18.70
2017-11-26T05:02:02.298Z,17.17
2017-11-26T05:04:29.730Z,16.07
2017-11-26T05:06:57.255Z,19.50
2017-11-26T05:09:24.660Z,17.57
2017-11-26T05:11:52.135Z,20.17
2017-11-26T05:14:19.585Z,10.90
2017-11-26T05:16:47.032Z,19.70
2017-11-26T05:19:14.493Z,13.37
2017-11-26T05:21:41.919Z,15.43
2017-11-26T05:24:10.109Z,19.53
2017-11-26T05:26:37.570Z,16.33
2017-11-26T05:29:04.998Z,24.37
2017-11-26T05:31:33.189Z,19.87
2017-11-26T05:34:00.626Z,25.10
2017-11-26T05:36:28.818Z,21.03
2017-11-26T05:38:56.302Z,22.07
2017-11-26T05:41:23.770Z,21.47
2017-11-26T05:43:51.194Z,17.33
2017-11-26T05:46:18.613Z,27.90
2017-11-26T05:48:46.130Z,24.63
2017-11-26T05:51:13.568Z,20.17
2017-11-26T05:53:41.757Z,14.70
2017-11-26T05:56:09.173Z,14.23
2017-11-26T05:58:37.366Z,20.67
2017-11-26T06:01:04.789Z,18.07
2017-11-26T06:03:32.237Z,23.13
2017-11-26T06:05:59.655Z,14.07
2017-11-26T06:08:27.118Z,20.53
2017-11-26T06:10:54.567Z,13.37
2017-11-26T06:13:22.038Z,15.40
2017-11-26T06:15:49.701Z,9.57
2017-11-26T06:18:17.166Z,16.13
2017-11-26T06:20:44.615Z,15.57
2017-11-26T06:23:12.070Z,15.60
2017-11-26T06:25:39.509Z,18.53
2017-11-26T06:28:06.982Z,22.23
2017-11-26T06:30:34.443Z,15.73
2017-11-26T06:33:01.882Z,16.27
2017-11-26T06:35:29.306Z,12.87
2017-11-26T06:37:57.502Z,11.73
2017-11-26T06:40:24.938Z,13.70
2017-11-26T06:42:53.126Z,15.50
2017-11-26T06:45:21.314Z,20.10
2017-11-26T06:47:48.751Z,20.23
2017-11-26T06:50:16.968Z,22.17
2017-11-26T06:52:44.394Z,16.67
2017-11-26T06:55:11.830Z,18.20
2017-11-26T06:57:40.018Z,11.93
2017-11-26T07:00:08.213Z,20.57
2017-11-26T07:02:35.650Z,15.67
2017-11-26T07:05:03.841Z,11.00
2017-11-26T07:07:31.261Z,11.00
2017-11-26T07:09:58.702Z,17.63
2017-11-26T07:12:26.230Z,23.53
2017-11-26T07:14:53.653Z,17.90
2017-11-26T07:17:21.090Z,11.93
2017-11-26T07:19:48.514Z,12.43
2017-11-26T07:22:15.974Z,14.33
2017-11-26T07:24:43.561Z,13.87
2017-11-26T07:27:10.982Z,27.53
2017-11-26T07:29:38.537Z,18.97
2017-11-26T07:32:06.028Z,12.27
2017-11-26T07:34:33.454Z,17.53
2017-11-26T07:37:00.874Z,21.10
2017-11-26T07:39:28.310Z,17.53
2017-11-26T07:41:56.502Z,18.77
2017-11-26T07:44:23.935Z,16.87
2017-11-26T07:46:51.458Z,17.43
2017-11-26T07:49:18.882Z,20.00
2017-11-26T07:51:46.309Z,14.93
2017-11-26T07:54:13.822Z,15.77
2017-11-26T07:56:41.250Z,18.20
2017-11-26T07:59:08.669Z,17.40
2017-11-26T08:01:36.109Z,18.23
2017-11-26T08:04:03.548Z,16.37
2017-11-26T08:06:30.974Z,14.67
2017-11-26T08:08:58.409Z,16.43
2017-11-26T08:11:26.597Z,9.93
2017-11-26T08:13:54.786Z,12.77
2017-11-26T08:16:22.262Z,9.80
2017-11-26T08:18:49.731Z,10.50
2017-11-26T08:21:17.214Z,16.20
2017-11-26T08:23:44.737Z,10.93
2017-11-26T08:26:12.162Z,18.67
2017-11-26T08:28:40.351Z,13.10
2017-11-26T08:31:07.834Z,16.90
2017-11-26T08:33:35.380Z,14.17
2017-11-26T08:36:02.850Z,15.53
2017-11-26T08:38:30.286Z,14.53
2017-11-26T08:40:57.726Z,14.70
2017-11-26T08:43:25.150Z,14.43
2017-11-26T08:45:52.587Z,21.43
2017-11-26T08:48:20.019Z,19.23
2017-11-26T08:50:47.476Z,15.67
2017-11-26T08:53:14.902Z,15.50
2017-11-26T08:55:43.101Z,15.50
2017-11-26T08:58:10.523Z,14.43
2017-11-26T09:00:38.726Z,16.57
2017-11-26T09:03:06.145Z,13.83
2017-11-26T09:05:33.602Z,7.20
2017-11-26T09:08:01.452Z,16.37
2017-11-26T09:10:28.882Z,18.20
2017-11-26T09:12:56.314Z,20.00
2017-11-26T09:15:23.754Z,10.07
2017-11-26T09:17:51.950Z,11.00
2017-11-26T09:20:19.374Z,16.43
2017-11-26T09:22:47.582Z,13.43
2017-11-26T09:25:15.058Z,16.83
2017-11-26T09:27:42.509Z,13.83
2017-11-26T09:30:09.933Z,12.27
2017-11-26T09:32:38.149Z,14.20
2017-11-26T09:35:05.575Z,12.10
2017-11-26T09:37:33.010Z,13.20
2017-11-26T09:40:01.239Z,12.10
2017-11-26T09:42:28.666Z,13.67
2017-11-26T09:44:56.153Z,12.23
2017-11-26T09:47:23.602Z,15.13
2017-11-26T09:49:51.035Z,12.90
2017-11-26T09:52:18.482Z,11.43
2017-11-26T09:54:46.694Z,16.73
2017-11-26T09:57:14.117Z,8.30
2017-11-26T09:59:41.603Z,15.10
2017-11-26T10:02:09.017Z,10.00
2017-11-26T10:04:37.258Z,13.43
2017-11-26T10:07:04.677Z,18.63
2017-11-26T10:09:32.111Z,14.47
2017-11-26T10:12:00.303Z,15.07
2017-11-26T10:14:27.781Z,13.80
2017-11-26T10:16:55.218Z,11.17
2017-11-26T10:19:22.699Z,7.97
2017-11-26T10:21:50.129Z,9.90
2017-11-26T10:24:17.634Z,16.07
2017-11-26T10:26:45.070Z,11.73
2017-11-26T10:29:12.525Z,14.50
2017-11-26T10:31:39.958Z,8.63
2017-11-26T10:34:08.141Z,10.63
2017-11-26T10:36:35.583Z,8.67
2017-11-26T10:39:03.073Z,12.33
2017-11-26T10:41:30.506Z,15.67
2017-11-26T10:43:57.977Z,12.57
2017-11-26T10:46:25.678Z,6.97
2017-11-26T10:48:53.099Z,9.43
2017-11-26T10:51:20.554Z,8.50
2017-11-26T10:53:48.010Z,13.73
2017-11-26T10:56:15.435Z,12.17
2017-11-26T10:58:43.632Z,8.33
2017-11-26T11:01:11.051Z,8.90
2017-11-26T11:03:39.239Z,11.50
2017-11-26T11:06:07.442Z,18.30
2017-11-26T11:08:34.910Z,12.77
2017-11-26T11:11:02.366Z,13.93
2017-11-26T11:13:29.798Z,11.13
2017-11-26T11:15:57.270Z,10.97
2017-11-26T11:18:24.696Z,11.73
2017-11-26T11:20:52.901Z,10.83
2017-11-26T11:23:20.363Z,7.23
2017-11-26T11:25:47.791Z,8.13
2017-11-26T11:28:15.281Z,15.80
2017-11-26T11:30:42.734Z,8.90
2017-11-26T11:33:10.189Z,4.90
2017-11-26T11:35:37.670Z,11.47
2017-11-26T11:38:05.097Z,7.30
2017-11-26T11:40:32.561Z,6.03
2017-11-26T11:43:00.024Z,10.43
2017-11-26T11:45:27.478Z,11.03
2017-11-26T11:47:54.934Z,8.20
2017-11-26T11:50:22.395Z,5.30
2017-11-26T11:52:49.813Z,6.17
2017-11-26T11:55:18.003Z,5.43
2017-11-26T11:57:45.441Z,6.53
2017-11-26T12:00:13.633Z,6.30
2017-11-26T12:02:41.110Z,10.70
2017-11-26T12:05:08.550Z,6.03
2017-11-26T12:07:35.974Z,8.30
2017-11-26T12:10:04.198Z,6.57
2017-11-26T12:12:31.662Z,9.07
2017-11-26T12:14:59.082Z,7.30
2017-11-26T12:17:27.344Z,9.93
2017-11-26T12:19:56.290Z,9.53
2017-11-26T12:22:23.698Z,21.23
2017-11-26T12:24:51.922Z,19.73
2017-11-26T12:27:19.363Z,10.23
2017-11-26T12:29:46.825Z,13.53
2017-11-26T12:32:14.259Z,12.17
2017-11-26T12:34:41.740Z,10.63
2017-11-26T12:37:09.198Z,10.80
2017-11-26T12:39:36.628Z,5.00
2017-11-26T12:42:04.823Z,7.40
2017-11-26T12:44:32.241Z,9.30
2017-11-26T12:47:00.471Z,12.93
2017-11-26T12:49:27.906Z,10.43
2017-11-26T12:51:55.374Z,11.53
2017-11-26T12:54:22.834Z,14.13
2017-11-26T12:56:50.267Z,13.60
2017-11-26T12:59:17.694Z,11.43
2017-11-26T13:01:45.891Z,11.77
2017-11-26T13:04:14.082Z,8.67
2017-11-26T13:06:41.550Z,14.67
2017-11-26T13:09:08.970Z,5.83
2017-11-26T13:11:37.202Z,13.47
2017-11-26T13:14:04.631Z,7.17
2017-11-26T13:16:32.075Z,15.03
2017-11-26T13:18:59.555Z,11.17
2017-11-26T13:21:26.973Z,13.37
2017-11-26T13:23:55.186Z,12.23
2017-11-26T13:26:22.642Z,12.13
2017-11-26T13:28:50.098Z,10.93
2017-11-26T13:31:17.550Z,10.93
2017-11-26T13:33:45.021Z,10.83
2017-11-26T13:36:12.437Z,11.13
2017-11-26T13:38:40.642Z,10.93
2017-11-26T13:41:08.070Z,11.60
2017-11-26T13:43:35.498Z,8.97
2017-11-26T13:46:02.914Z,6.60
2017-11-26T13:48:30.365Z,4.37
2017-11-26T13:50:57.823Z,3.47
2017-11-26T13:53:25.982Z,5.97
2017-11-26T13:55:53.471Z,4.27
2017-11-26T13:58:20.898Z,3.00
2017-11-26T14:00:48.314Z,3.87
2017-11-26T14:03:15.826Z,3.43
2017-11-26T14:05:43.254Z,6.03
2017-11-26T14:08:11.462Z,3.83
2017-11-26T14:10:38.898Z,2.13
2017-11-26T14:13:06.403Z,4.37
2017-11-26T14:15:33.826Z,5.17
2017-11-26T14:18:01.258Z,2.97
2017-11-26T14:20:29.494Z,4.67
2017-11-26T14:22:56.902Z,2.10
2017-11-26T14:25:24.334Z,3.43
2017-11-26T14:27:52.517Z,4.17
2017-11-26T14:30:20.006Z,4.33
2017-11-26T14:32:47.437Z,6.57
2017-11-26T14:35:14.861Z,9.23
2017-11-26T14:37:42.283Z,6.83
2017-11-26T14:40:09.734Z,9.10
2017-11-26T14:42:37.158Z,6.73
2017-11-26T14:45:05.366Z,10.67
2017-11-26T14:47:32.798Z,6.63
2017-11-26T14:50:00.218Z,9.33
2017-11-26T14:52:27.744Z,9.47
2017-11-26T14:54:55.165Z,8.37
2017-11-26T14:57:22.594Z,6.90
2017-11-26T14:59:50.789Z,14.70
2017-11-26T15:02:18.992Z,7.90
2017-11-26T15:04:46.409Z,8.20
2017-11-26T15:07:14.635Z,6.87
2017-11-26T15:09:42.086Z,10.27
2017-11-26T15:12:09.498Z,4.87
2017-11-26T15:14:37.690Z,8.17
2017-11-26T15:17:05.132Z,5.70
2017-11-26T15:19:33.319Z,6.77
2017-11-26T15:22:01.513Z,3.93
2017-11-26T15:24:28.954Z,9.00
2017-11-26T15:26:56.370Z,9.00
2017-11-26T15:29:23.793Z,4.47
2017-11-26T15:31:51.244Z,7.20
2017-11-26T15:34:18.752Z,6.70
2017-11-26T15:36:46.126Z,6.60
2017-11-26T15:39:14.335Z,9.20
2017-11-26T15:41:41.795Z,5.63
2017-11-26T15:44:09.218Z,6.90
2017-11-26T15:46:37.557Z,4.93
2017-11-26T15:49:04.990Z,10.70
2017-11-26T15:51:32.420Z,13.30
2017-11-26T15:53:59.850Z,16.70
2017-11-26T15:56:28.079Z,10.37
2017-11-26T15:58:55.510Z,13.53
2017-11-26T16:01:22.951Z,20.63
2017-11-26T16:03:51.142Z,15.70
2017-11-26T16:06:18.621Z,18.30
2017-11-26T16:08:46.057Z,14.60
2017-11-26T16:11:13.478Z,13.30
2017-11-26T16:13:41.671Z,15.87
2017-11-26T16:16:09.876Z,14.23
2017-11-26T16:18:37.341Z,14.57
2017-11-26T16:21:04.746Z,14.53
2017-11-26T16:23:32.965Z,10.70
2017-11-26T16:26:00.373Z,16.43
2017-11-26T16:28:28.565Z,17.90
2017-11-26T16:30:56.769Z,8.03
2017-11-26T16:33:24.187Z,8.43
2017-11-26T16:35:52.386Z,3.90
2017-11-26T16:38:19.881Z,6.63
2017-11-26T16:40:47.298Z,4.40
2017-11-26T16:43:14.714Z,9.80
2017-11-26T16:45:42.962Z,6.37
2017-11-26T16:48:10.418Z,8.40
2017-11-26T16:50:37.897Z,7.63
2017-11-26T16:53:05.346Z,11.27
2017-11-26T16:55:33.090Z,8.43
2017-11-26T16:58:00.527Z,14.30
2017-11-26T17:00:28.750Z,20.13
2017-11-26T17:02:56.175Z,10.40
2017-11-26T17:05:23.598Z,11.30
2017-11-26T17:07:51.038Z,11.53
2017-11-26T17:10:19.226Z,10.47
2017-11-26T17:12:47.416Z,6.67
2017-11-26T17:15:14.840Z,7.57
2017-11-26T17:17:42.328Z,7.93
2017-11-26T17:20:09.754Z,11.20
2017-11-26T17:22:37.266Z,7.93
2017-11-26T17:25:04.719Z,7.37
2017-11-26T17:27:32.138Z,6.53
2017-11-26T17:30:00.454Z,17.07
2017-11-26T17:32:27.914Z,12.20
2017-11-26T17:34:55.342Z,16.70
2017-11-26T17:37:22.782Z,10.83
2017-11-26T17:39:50.971Z,5.47
2017-11-26T17:42:18.394Z,8.57
2017-11-26T17:44:45.830Z,5.97
2017-11-26T17:47:13.363Z,6.73
2017-11-26T17:49:40.790Z,3.73
2017-11-26T17:52:08.982Z,14.30
2017-11-26T17:54:36.410Z,12.20
2017-11-26T17:57:03.918Z,19.67
2017-11-26T17:59:31.384Z,36.67
2017-11-26T18:01:58.840Z,25.07
2017-11-26T18:04:26.252Z,18.03
2017-11-26T18:06:54.463Z,11.97
2017-11-26T18:09:21.899Z,12.40
2017-11-26T18:11:49.322Z,13.40
2017-11-26T18:14:17.562Z,9.10
2017-11-26T18:16:45.006Z,14.60
2017-11-26T18:19:12.470Z,14.67
2017-11-26T18:21:39.916Z,9.07
2017-11-26T18:24:07.384Z,9.43
2017-11-26T18:26:34.835Z,9.00
2017-11-26T18:29:02.290Z,13.80
2017-11-26T18:31:29.718Z,12.23
2017-11-26T18:33:57.305Z,10.67
2017-11-26T18:36:24.766Z,13.37
2017-11-26T18:38:52.191Z,14.87
2017-11-26T18:41:19.684Z,14.37
2017-11-26T18:43:47.117Z,11.83
2017-11-26T18:46:14.599Z,15.60
2017-11-26T18:48:42.022Z,20.87
2017-11-26T18:51:09.514Z,22.13
2017-11-26T18:53:36.934Z,12.50
2017-11-26T18:56:04.363Z,17.73
2017-11-26T18:58:31.887Z,18.07
2017-11-26T19:00:59.338Z,22.33
2017-11-26T19:03:26.801Z,20.30
2017-11-26T19:05:54.258Z,19.70
2017-11-26T19:08:21.799Z,32.03
2017-11-26T19:10:49.219Z,21.63
2017-11-26T19:13:17.450Z,22.17
2017-11-26T19:15:44.875Z,26.50
2017-11-26T19:18:12.366Z,26.50
2017-11-26T19:20:39.809Z,23.50
2017-11-26T19:23:07.257Z,32.67
2017-11-26T19:25:34.734Z,23.43
2017-11-26T19:28:02.205Z,50.90
2017-11-26T19:30:29.602Z,32.83
2017-11-26T19:32:57.828Z,39.23
2017-11-26T19:35:25.378Z,36.70
2017-11-26T19:37:52.822Z,33.93
2017-11-26T19:40:20.258Z,33.13
2017-11-26T19:42:47.751Z,32.87
2017-11-26T19:45:15.214Z,34.50
2017-11-26T19:47:42.662Z,24.07
2017-11-26T19:50:10.098Z,24.73
2017-11-26T19:52:37.593Z,21.63
2017-11-26T19:55:05.023Z,21.00
2017-11-26T19:57:32.458Z,20.33
2017-11-26T19:59:59.886Z,18.23
2017-11-26T20:02:27.314Z,24.80
2017-11-26T20:04:54.762Z,23.93
2017-11-26T20:07:22.193Z,31.83
2017-11-26T20:09:49.630Z,28.20
2017-11-26T20:12:17.885Z,29.30
2017-11-26T20:14:45.312Z,29.53
2017-11-26T20:17:12.738Z,32.03
2017-11-26T20:19:40.182Z,28.70
2017-11-26T20:22:08.386Z,21.60
2017-11-26T20:24:35.816Z,24.80
2017-11-26T20:27:04.129Z,23.97
2017-11-26T20:29:31.559Z,27.87
2017-11-26T20:31:58.985Z,30.00
2017-11-26T20:34:26.501Z,43.60
2017-11-26T20:36:53.954Z,31.90
2017-11-26T20:39:21.386Z,29.33
2017-11-26T20:41:48.826Z,27.60
2017-11-26T20:44:17.022Z,26.33
2017-11-26T20:46:44.515Z,23.20
2017-11-26T20:49:11.984Z,24.13
2017-11-26T20:51:39.418Z,22.00
2017-11-26T20:54:06.846Z,26.00
2017-11-26T20:56:34.286Z,25.63
2017-11-26T20:59:02.490Z,25.83
2017-11-26T21:01:29.958Z,29.27
2017-11-26T21:03:57.422Z,26.07
2017-11-26T21:06:24.845Z,33.33
2017-11-26T21:08:52.273Z,24.60
2017-11-26T21:11:19.729Z,21.47
2017-11-26T21:13:47.159Z,23.63
2017-11-26T21:16:14.602Z,22.33
2017-11-26T21:18:42.062Z,23.77
2017-11-26T21:21:09.521Z,19.57
2017-11-26T21:23:36.946Z,16.23
2017-11-26T21:26:04.390Z,26.23
2017-11-26T21:28:32.586Z,16.50
2017-11-26T21:31:00.011Z,21.97
2017-11-26T21:33:28.206Z,17.40
2017-11-26T21:35:55.704Z,24.53
2017-11-26T21:38:23.146Z,22.70
2017-11-26T21:40:50.606Z,19.13
2017-11-26T21:43:18.031Z,17.90
2017-11-26T21:45:45.458Z,22.53
2017-11-26T21:48:12.982Z,23.90
2017-11-26T21:50:40.427Z,24.20
2017-11-26T21:53:07.844Z,17.77
2017-11-26T21:55:36.042Z,20.53
2017-11-26T21:58:03.626Z,24.93
2017-11-26T22:00:31.082Z,18.20
2017-11-26T22:02:59.254Z,25.53
2017-11-26T22:05:26.714Z,17.57
2017-11-26T22:07:54.170Z,20.33
2017-11-26T22:10:21.602Z,16.97
2017-11-26T22:12:49.042Z,18.17
2017-11-26T22:15:17.238Z,17.17
2017-11-26T22:17:44.679Z,25.90
2017-11-26T22:20:12.902Z,18.23
2017-11-26T22:22:40.442Z,18.90
2017-11-26T22:25:07.906Z,18.33
2017-11-26T22:27:35.334Z,15.30
2017-11-26T22:30:02.830Z,12.90
2017-11-26T22:32:30.269Z,10.93
2017-11-26T22:34:57.705Z,11.73
2017-11-26T22:37:25.129Z,16.70
2017-11-26T22:39:52.647Z,13.30
2017-11-26T22:42:20.103Z,13.57
2017-11-26T22:44:47.527Z,16.47
2017-11-26T22:47:15.729Z,20.73
2017-11-26T22:49:43.203Z,12.90
2017-11-26T22:52:10.614Z,9.50
2017-11-26T22:54:38.817Z,13.93
2017-11-26T22:57:06.291Z,8.43
2017-11-26T22:59:33.715Z,20.97
2017-11-26T23:02:01.150Z,10.70
2017-11-26T23:04:44.218Z,15.63
2017-11-26T23:07:11.655Z,12.30
2017-11-26T23:09:39.074Z,15.47
2017-11-26T23:12:06.514Z,13.80
2017-11-26T23:14:33.947Z,21.20
2017-11-26T23:17:01.370Z,19.23
2017-11-26T23:19:29.565Z,17.13
2017-11-26T23:21:56.994Z,22.17
2017-11-26T23:24:25.205Z,20.90
2017-11-26T23:26:52.661Z,18.00
2017-11-26T23:29:20.103Z,26.97
2017-11-26T23:31:47.529Z,27.73
2017-11-26T23:34:15.753Z,25.43
2017-11-26T23:36:43.195Z,31.73
2017-11-26T23:39:10.614Z,22.07
2017-11-26T23:41:38.822Z,22.40
2017-11-26T23:44:06.255Z,28.30
2017-11-26T23:46:34.446Z,26.50
2017-11-26T23:49:01.926Z,18.87
2017-11-26T23:51:29.394Z,24.60
2017-11-26T23:53:56.814Z,22.63
2017-11-26T23:56:24.239Z,20.00
2017-11-26T23:58:51.674Z,18.30
